Latest Weather Observations for Laverton

IDV60901

Issued at 7:31 am EDT Sunday 26 February 2017 (issued every 10 minutes, with the page automatically refreshed every 10 minutes)

About weather observations | Map of Melbourne area stations | Latest observations for Melbourne area | Other Formats
Station Details ID: 087031 Name: LAVERTON RAAF Lat: -37.86 Lon: 144.76 Height: 20.1 m
Data from the previous 72 hours. | See also: Recent months at Laverton
Date/Time
EDT
Temp
°C
App
Temp
°C
Dew
Point
°C
Rel
Hum
%
Delta-T
°C
Wind Press
QNH
hPa
Press
MSL
hPa
Rain since
9am
mm
Dir  Spd
km/h
Gust
km/h
Spd
kts
Gust
kts
26/07:00am 11.5 9.7 11.0 97 0.3 NW 11 11 6 6 1020.8 1020.7 0.0
26/06:30am 11.9 12.3 11.1 95 0.4 CALM 0 0 0 0 1020.5 1020.4 0.0
26/06:00am 12.7 13.2 11.6 93 0.6 CALM 0 0 0 0 1020.1 1020.0 0.0
26/05:30am 13.8 14.6 12.4 91 0.8 CALM 0 0 0 0 1019.8 1019.7 0.0
26/05:00am 14.7 15.5 12.6 87 1.1 CALM 0 0 0 0 1019.7 1019.6 0.0
26/04:30am 15.1 14.1 12.4 84 1.5 E 9 11 5 6 1019.7 1019.6 0.0
26/04:00am 16.0 14.1 12.9 82 1.7 E 15 20 8 11 1019.9 1019.8 0.0
26/03:30am 16.4 14.1 12.9 80 1.9 ESE 17 26 9 14 1020.2 1020.1 0.0
26/03:00am 16.7 14.5 13.2 80 2.0 ESE 17 26 9 14 1020.5 1020.4 0.0
26/02:30am 16.9 14.4 13.6 81 1.9 ESE 19 35 10 19 1020.6 1020.5 0.0
26/02:00am 17.2 14.1 13.5 79 2.1 ESE 22 33 12 18 1020.8 1020.7 0.0
26/01:30am 17.3 14.3 13.8 80 2.0 ESE 22 35 12 19 1021.0 1020.9 0.0
26/01:00am 17.2 14.1 13.5 79 2.1 ESE 22 35 12 19 1021.1 1021.0 0.0
26/12:30am 17.3 13.6 13.8 80 2.0 SE 26 41 14 22 1021.4 1021.3 0.0
26/12:00am 17.2 13.3 13.3 78 2.2 SE 26 37 14 20 1021.5 1021.4 0.0
 
Date/Time
EDT
Temp
°C
App
Temp
°C
Dew
Point
°C
Rel
Hum
%
Delta-T
°C
Wind Press
QNH
hPa
Press
MSL
hPa
Rain since
9am
mm
Dir  Spd
km/h
Gust
km/h
Spd
kts
Gust
kts
25/11:30pm 17.5 14.6 13.0 75 2.5 SE 20 30 11 16 1021.6 1021.5 0.0
25/11:00pm 17.9 14.2 12.6 71 2.9 SE 24 33 13 18 1021.8 1021.7 0.0
25/10:30pm 18.0 15.5 13.5 75 2.5 SE 19 30 10 16 1021.9 1021.8 0.0
25/10:00pm 17.9 16.2 14.8 82 1.8 SSE 17 24 9 13 1022.0 1021.9 0.0
25/09:30pm 17.6 15.7 14.3 81 1.9 S 17 26 9 14 1022.1 1022.0 0.0
25/09:00pm 17.8 15.4 13.7 77 2.3 SSW 19 24 10 13 1021.9 1021.8 0.0
25/08:30pm 17.2 14.1 12.3 73 2.7 SSW 20 28 11 15 1021.8 1021.7 0.0
25/08:00pm 17.0 14.1 11.1 68 3.2 S 17 24 9 13 1022.0 1021.9 0.0
25/07:30pm 17.4 13.4 10.5 64 3.7 S 22 30 12 16 1022.0 1021.9 0.0
25/07:00pm 17.6 12.3 10.0 61 4.0 S 28 43 15 23 1022.1 1022.0 0.0
25/06:30pm 18.1 12.7 9.5 57 4.5 S 28 39 15 21 1022.2 1022.1 0.0
25/06:00pm 18.5 12.9 10.1 58 4.5 S 30 43 16 23 1022.1 1022.0 0.0
25/05:30pm 19.2 13.5 8.5 50 5.6 S 28 39 15 21 1022.0 1021.9 0.0
25/05:00pm 20.1 15.2 8.4 47 6.1 SSW 24 33 13 18 1021.9 1021.8 0.0
25/04:30pm 20.1 15.6 8.4 47 6.1 SSW 22 33 12 18 1022.0 1021.9 0.0
25/04:00pm 20.0 15.3 7.7 45 6.3 SSW 22 32 12 17 1022.2 1022.1 0.0
25/03:30pm 20.0 14.9 7.7 45 6.3 SSW 24 33 13 18 1022.4 1022.3 0.0
25/03:00pm 19.4 15.2 8.1 48 5.8 S 20 28 11 15 1022.6 1022.5 0.0
25/02:30pm 19.4 15.1 7.8 47 6.0 S 20 26 11 14 1022.9 1022.8 0.0
25/02:00pm 19.3 15.3 8.3 49 5.7 SSW 19 28 10 15 1023.5 1023.4 0.0
25/01:30pm 18.8 14.6 8.2 50 5.5 S 20 30 11 16 1023.8 1023.7 0.0
25/01:00pm 18.4 14.0 7.5 49 5.5 S 20 30 11 16 1024.1 1024.0 0.0
25/12:30pm 17.4 12.6 7.5 52 5.0 S 22 33 12 18 1024.4 1024.3 0.0
25/12:00pm 18.1 12.6 7.5 50 5.3 S 26 35 14 19 1024.7 1024.6 0.0
25/11:30am 17.6 12.6 7.9 53 4.9 S 24 32 13 17 1025.0 1024.9 0.0
25/11:00am 16.7 12.1 8.1 57 4.3 SSE 22 33 12 18 1025.2 1025.1 0.0
25/10:30am 17.8 12.9 8.6 55 4.7 SE 24 35 13 19 1025.2 1025.1 0.0
25/10:00am 16.9 12.5 8.8 59 4.1 SE 22 33 12 18 1025.1 1025.0 0.0
25/09:30am 16.7 12.9 8.9 60 4.0 SSE 19 30 10 16 1025.2 1025.1 0.0
25/09:00am 15.9 12.4 8.9 63 3.6 SE 17 26 9 14 1025.3 1025.2 0.0
25/08:30am 16.0 12.0 8.2 60 3.9 SE 19 26 10 14 1025.0 1024.9 0.0
25/08:00am 15.5 12.2 8.0 61 3.7 SSE 15 20 8 11 1024.9 1024.8 0.0
25/07:30am 15.1 11.8 7.9 62 3.6 SSE 15 22 8 12 1024.8 1024.7 0.0
25/07:00am 14.8 11.4 7.8 63 3.5 SSE 15 26 8 14 1024.4 1024.3 0.0
25/06:30am 14.7 10.7 6.8 59 3.8 SSE 17 28 9 15 1024.2 1024.1 0.0
25/06:00am 15.2 11.0 7.3 59 3.9 SSE 19 32 10 17 1024.1 1024.0 0.0
25/05:30am 14.9 10.9 8.2 64 3.4 SSE 19 26 10 14 1024.1 1024.0 0.0
25/05:00am 14.7 10.5 7.5 62 3.5 SSE 19 26 10 14 1024.2 1024.1 0.0
25/04:30am 14.9 10.9 8.4 65 3.3 SSE 19 28 10 15 1024.2 1024.1 0.0
25/04:00am 14.9 10.8 8.6 66 3.2 SSE 20 32 11 17 1024.3 1024.2 0.0
25/03:30am 15.4 11.4 8.9 65 3.3 SSE 20 30 11 16 1024.4 1024.3 0.0
25/03:00am 15.7 11.3 9.1 65 3.4 SSE 22 32 12 17 1024.4 1024.3 0.0
25/02:30am 15.8 12.0 9.9 68 3.1 SSE 20 32 11 17 1024.6 1024.5 0.0
25/02:00am 15.2 13.1 12.3 83 1.6 SSW 15 20 8 11 1024.9 1024.8 0.0
25/01:30am 14.8 11.8 12.1 84 1.5 S 19 32 10 17 1025.1 1025.0 0.0
25/01:00am 15.7 13.2 11.1 74 2.4 S 15 20 8 11 1025.1 1025.0 0.0
25/12:30am 16.0 13.0 11.8 76 2.3 SSE 19 28 10 15 1025.1 1025.0 0.0
25/12:00am 16.5 13.5 10.6 68 3.1 S 17 24 9 13 1025.2 1025.1 0.0
 
Date/Time
EDT
Temp
°C
App
Temp
°C
Dew
Point
°C
Rel
Hum
%
Delta-T
°C
Wind Press
QNH
hPa
Press
MSL
hPa
Rain since
9am
mm
Dir  Spd
km/h
Gust
km/h
Spd
kts
Gust
kts
24/11:30pm 16.8 14.6 10.9 68 3.2 S 13 19 7 10 1025.3 1025.2 0.0
24/11:00pm 16.7 13.6 10.3 66 3.4 SSW 17 22 9 12 1025.4 1025.3 0.0
24/10:30pm 16.2 13.3 9.8 66 3.3 S 15 20 8 11 1025.7 1025.6 0.0
24/10:00pm 16.9 13.2 9.6 62 3.8 S 19 30 10 16 1025.8 1025.7 0.0
24/09:30pm 17.1 13.1 9.0 59 4.2 SSW 20 28 11 15 1025.8 1025.7 0.0
24/09:00pm 17.1 12.8 9.3 60 4.0 SSW 22 30 12 16 1025.5 1025.4 0.0
24/08:30pm 17.1 13.5 9.8 62 3.8 S 19 26 10 14 1025.3 1025.2 0.0
24/08:00pm 17.1 12.6 8.5 57 4.4 S 22 33 12 18 1025.2 1025.1 0.0
24/07:30pm 17.7 13.9 9.1 57 4.5 S 19 28 10 15 1025.0 1024.9 0.0
24/07:00pm 17.5 12.9 9.7 60 4.1 S 24 33 13 18 1024.8 1024.7 0.0
24/06:30pm 18.1 13.6 8.4 53 5.0 SSE 22 37 12 20 1024.7 1024.6 0.0
24/06:00pm 18.1 14.0 10.0 59 4.3 SSE 22 32 12 17 1024.8 1024.7 0.0
24/05:30pm 18.1 13.1 9.7 58 4.4 SSE 26 37 14 20 1024.8 1024.7 0.0
24/05:00pm 18.2 13.1 9.3 56 4.6 SSE 26 35 14 19 1024.8 1024.7 0.0
24/04:30pm 17.5 13.0 10.1 62 3.9 SSE 24 32 13 17 1024.9 1024.8 0.0
24/04:00pm 17.9 13.7 9.8 59 4.3 S 22 33 12 18 1024.9 1024.8 0.0
24/03:30pm 18.7 14.1 9.8 56 4.7 S 24 33 13 18 1025.0 1024.9 0.0
24/03:00pm 18.0 14.1 9.6 58 4.4 SSE 20 32 11 17 1025.2 1025.1 0.0
24/02:30pm 18.1 14.1 8.9 55 4.8 S 20 32 11 17 1025.4 1025.3 0.0
24/02:00pm 18.5 14.0 8.5 52 5.1 S 22 35 12 19 1025.4 1025.3 0.0
24/01:30pm 18.9 14.4 8.6 51 5.3 S 22 33 12 18 1025.4 1025.3 0.0
24/01:00pm 18.9 14.5 8.8 52 5.2 S 22 35 12 19 1025.4 1025.3 0.0
24/12:30pm 19.3 14.4 8.6 50 5.6 S 24 33 13 18 1025.4 1025.3 0.0
24/12:00pm 18.7 14.2 8.4 51 5.3 SSW 22 35 12 19 1025.4 1025.3 0.0
24/11:30am 18.3 13.4 8.6 53 5.0 SSW 24 35 13 19 1025.5 1025.4 0.0
24/11:00am 18.4 14.2 8.1 51 5.3 SSW 20 30 11 16 1025.3 1025.2 0.0
24/10:30am 17.8 13.3 8.4 54 4.8 SSW 22 32 12 17 1025.3 1025.2 0.0
24/10:00am 17.6 13.6 9.2 58 4.4 SW 20 28 11 15 1025.1 1025.0 0.0
24/09:30am 17.0 13.8 10.1 64 3.6 SW 17 26 9 14 1024.8 1024.7 0.0
24/09:00am 16.3 13.1 9.9 66 3.3 SW 17 26 9 14 1024.5 1024.4 0.0
24/08:30am 16.2 12.6 9.8 66 3.3 SW 19 30 10 16 1024.5 1024.4 0.0
24/08:00am 16.1 12.7 10.6 70 2.9 SW 19 26 10 14 1024.0 1023.9 0.0
24/07:30am 15.9 14.2 12.3 79 2.0 SW 13 17 7 9 1023.8 1023.7 0.0
24/07:00am 16.1 13.4 11.7 75 2.4 SSW 17 24 9 13 1023.4 1023.3 0.0
24/06:30am 15.9 13.4 12.3 79 2.0 SSW 17 24 9 13 1023.1 1023.0 0.0
24/06:00am 15.9 13.5 12.5 80 1.9 SSW 17 22 9 12 1022.9 1022.8 0.0
24/05:30am 15.6 14.0 12.9 84 1.5 SW 13 17 7 9 1022.6 1022.5 0.0
24/05:00am 15.7 13.4 13.0 84 1.5 SSW 17 24 9 13 1022.4 1022.3 0.0
24/04:57am 15.7 13.4 13.0 84 1.5 SSW 17 24 9 13 1022.4 1022.3 0.0
24/04:30am 15.7 13.5 13.4 86 1.3 SSW 17 24 9 13 1022.5 1022.4 0.0
24/04:22am 16.1 14.0 13.6 85 1.4 SSW 17 22 9 12 1022.4 1022.3 0.0
24/04:00am 16.0 14.7 13.7 86 1.3 S 13 17 7 9 1022.5 1022.4 0.0
24/03:30am 15.9 13.5 13.7 87 1.2 SSW 19 24 10 13 1022.7 1022.6 0.0
24/03:00am 16.4 14.3 13.7 84 1.5 SSW 17 24 9 13 1022.8 1022.7 0.0
24/02:30am 16.2 14.3 14.2 88 1.1 SSW 17 20 9 11 1022.8 1022.7 0.0
24/02:00am 16.0 15.1 14.9 93 0.6 S 13 20 7 11 1022.8 1022.7 0.0
24/01:30am 16.0 14.5 15.2 95 0.5 S 17 22 9 12 1023.1 1023.0 0.0
24/01:18am 16.2 14.6 15.1 93 0.6 SSW 17 24 9 13 1023.2 1023.1 0.0
24/01:00am 16.4 14.3 14.8 90 0.9 S 19 24 10 13 1023.2 1023.1 0.0
24/12:58am 16.5 14.5 14.9 90 0.9 S 19 26 10 14 1023.2 1023.1 0.0
24/12:30am 17.1 15.7 14.4 84 1.5 S 15 22 8 12 1023.0 1022.9 0.0
24/12:00am 17.2 15.4 14.5 84 1.5 S 17 24 9 13 1022.9 1022.8 0.0
 
Date/Time
EDT
Temp
°C
App
Temp
°C
Dew
Point
°C
Rel
Hum
%
Delta-T
°C
Wind Press
QNH
hPa
Press
MSL
hPa
Rain since
9am
mm
Dir  Spd
km/h
Gust
km/h
Spd
kts
Gust
kts
23/11:30pm 17.1 15.5 14.9 87 1.3 S 17 24 9 13 1022.8 1022.7 0.0
23/11:25pm 17.0 15.4 15.0 88 1.2 S 17 24 9 13 1022.9 1022.8 0.0
23/11:02pm 17.2 16.0 15.0 87 1.3 S 15 24 8 13 1022.9 1022.8 0.0
23/11:00pm 17.4 15.8 15.0 86 1.4 S 17 26 9 14 1022.9 1022.8 0.0
23/10:30pm 17.9 15.6 14.2 79 2.1 S 19 26 10 14 1022.6 1022.5 0.0
23/10:00pm 18.1 15.8 14.2 78 2.2 S 19 28 10 15 1022.6 1022.5 0.0
23/09:30pm 18.2 16.4 14.5 79 2.1 S 17 24 9 13 1022.3 1022.2 0.0
23/09:00pm 18.3 15.7 14.8 80 2.0 SSE 22 32 12 17 1021.7 1021.6 0.0
23/08:30pm 18.3 16.1 14.8 80 2.0 S 20 33 11 18 1021.1 1021.0 0.0
23/08:00pm 18.6 16.3 14.7 78 2.3 S 20 32 11 17 1020.4 1020.3 0.0
23/07:30pm 19.4 16.3 14.4 73 2.9 S 24 33 13 18 1019.9 1019.8 0.0
23/07:00pm 20.2 16.9 13.9 67 3.6 SSE 24 39 13 21 1019.6 1019.5 0.0
23/06:30pm 21.1 18.8 14.7 67 3.8 SSE 20 26 11 14 1019.2 1019.1 0.0
23/06:00pm 22.1 20.5 15.0 64 4.2 SE 17 24 9 13 1018.6 1018.5 0.0
23/05:30pm 22.2 19.8 14.3 61 4.6 SE 20 28 11 15 1018.3 1018.2 0.0
23/05:00pm 22.4 20.0 14.5 61 4.6 SE 20 32 11 17 1018.0 1017.9 0.0
23/04:30pm 23.5 20.1 13.7 54 5.7 SE 24 32 13 17 1017.8 1017.7 0.0
23/04:00pm 24.6 21.2 12.5 46 6.9 SSE 22 32 12 17 1017.7 1017.6 0.0
23/03:30pm 23.6 20.6 12.6 50 6.3 SSE 20 32 11 17 1017.7 1017.6 0.0
23/03:00pm 25.5 22.9 12.0 43 7.7 WSW 17 30 9 16 1017.8 1017.7 0.0
23/02:37pm 25.6 23.1 12.4 43 7.6 SW 17 44 9 24 1017.7 1017.6 0.0
23/02:30pm 24.9 23.0 11.8 44 7.5 WSW 13 24 7 13 1017.8 1017.7 0.0
23/02:00pm 24.3 21.1 11.9 45 7.0 WSW 20 32 11 17 1018.1 1018.0 0.0
23/01:30pm 23.6 21.0 12.0 48 6.6 SW 17 20 9 11 1018.2 1018.1 0.0
23/01:00pm 23.5 20.5 11.9 48 6.6 WSW 19 30 10 16 1018.2 1018.1 0.0
23/12:30pm 22.9 20.4 12.2 51 6.1 SW 17 28 9 15 1018.4 1018.3 0.0
23/12:00pm 22.4 19.2 11.8 51 5.9 WSW 20 30 11 16 1018.5 1018.4 0.0
23/11:30am 22.7 19.7 12.0 50 6.0 W 19 28 10 15 1018.3 1018.2 0.0
23/11:00am 21.6 18.1 12.2 55 5.3 WSW 22 33 12 18 1018.1 1018.0 0.0
23/10:30am 21.6 17.6 11.9 54 5.4 WSW 24 32 13 17 1017.9 1017.8 0.0
23/10:00am 20.7 16.7 11.9 57 4.9 W 24 35 13 19 1017.7 1017.6 0.0
23/09:30am 20.2 16.2 11.9 59 4.6 W 24 37 13 20 1017.4 1017.3 0.0
23/09:00am 19.6 15.6 11.9 61 4.3 SW 24 30 13 16 1017.2 1017.1 0.0
23/08:30am 18.8 16.2 11.9 64 3.8 WSW 17 24 9 13 1016.8 1016.7 0.0
23/08:00am 15.9 15.4 12.6 81 1.8 WNW 7 9 4 5 1016.3 1016.2 0.0
23/07:45am 14.8 13.8 12.3 85 1.4 WNW 9 13 5 7 1016.0 1015.9 0.0

Latest Capital City Observations: Canberra | Sydney | Melbourne | Brisbane | Adelaide | Perth | Hobart | Darwin

Other Formats:

Comma delimited format used in spreadsheet applications
http://www.bom.gov.au/fwo/IDV60901/IDV60901.94865.axf

JavaScript Object Notation format (JSON) in row-major order
http://www.bom.gov.au/fwo/IDV60901/IDV60901.94865.json